Roy, Washington
Current Conditions -  °F | °C
As of 4:18 AM on Friday 24 Oct 2014 (Local Time) from KGRF Reporting Station
Drizzle Drizzle  
Wind Chill: 48°   Ceiling: 3200
Heat Index: 48°   Visibility: 10mi
Dew Point: 48°   Wind: 0mph
Humidity: 100%   Direction: NA
Pressure: 30.02"   Gusts: NA
Location:  47°N, 122.54°W
Report Text: KGRF 241118Z AUTO 00000KT 10SM DZ SCT026 BKN032 BKN150 09/09 A3002 RMK AO2
Loading
Personal Weather Stations






























Interactive Weather Map
Tropical Storm Tracking
New forecast layout! Learn more

10-Day Weather Forecast

Advertisements
Track Severe Weather on mobile